AirNav   Air Wisconsin Up To $57,000 Bonus
 
 910 users online  

7MD5 St Mary's Hospital Heliport
Leonardtown, Maryland, USA

GOING TO LEONARDTOWN?


FAA INFORMATION EFFECTIVE 16 JUNE 2022

Location

FAA Identifier: 7MD5
Lat/Long: 38-18-07.4000N 076-38-21.5200W
38-18.123333N 076-38.358667W
38.3020556,-76.6393111
(estimated)
Elevation: 102 ft. / 31 m (estimated)
Variation: 10W (1995)
From city: 1 mile NW of LEONARDTOWN, MD
Time zone: UTC -4 (UTC -5 during Standard Time)
Zip code: 20650

Heliport Operations

Heliport use: Private use, MEDICAL USE.
Activation date: 02/1998
Control tower: no
ARTCC: WASHINGTON CENTER
FSS: LEESBURG FLIGHT SERVICE STATION
NOTAMs facility: FDC (NOTAM-D service not available)
Attendance: CONTINUOUS
Wind indicator: lighted
Segmented circle: no
Lights: FOR PERIMETER AND FLOOD LGTS CALL 301-475-6012.
Beacon: white-green-yellow (heliport)
FOR ROTG BCN CALL 301-475-6012.

Heliport Communications

WX AWOS-3 at 2W6 (4 nm E): 119.575 (301-373-6514)

Heliport Services

Runway Information

Helipad H1

Dimensions: 45 x 45 ft. / 14 x 14 m
Surface: concrete, in fair condition
Runway edge lights: PERI
AND FLOOD LGTS.
Latitude: 38-18.123333N
Longitude: 076-38.358667W
Elevation: 102.0 ft.
Traffic pattern: leftleft
Markings: , in poor condition

Heliport Ownership and Management from official FAA records

Ownership: Privately-owned
Owner: ST. MARY'S HOSPITAL
25500 POINT LOOKOUT RD
LEONARDTOWN, MD 20650
Phone (301) 475-6001
Manager: JOHN GREELY
25500 POINT LOOKOUT RD
LEONARDTOWN, MD 20650
Phone (301) 475-6110
EMERG DEPT - 301-475-6110.

Additional Remarks

FOR CD CTC WASHINGTON ARTCC AT 703-771-3587.
A52-H1 20 FT PARKING LOT LIGHTS 200 FT S & 180 FT SE.

Instrument Procedures

There are no published instrument procedures at 7MD5.

Some nearby airports with instrument procedures:

2W6 - St Mary's County Regional Airport (4 nm E)
KNHK - Patuxent River Naval Air Station (Trapnell Field) (11 nm E)
2W5 - Maryland Airport (27 nm NW)
KXSA - Tappahannock/Essex County Airport (29 nm SW)
W32 - Washington Executive Airport/Hyde Field (30 nm NW)
 
Loc | Ops | Rwys | IFR | FBO | Links
Com | Nav | Svcs | Stats | Notes
Area around 7MD5 (St Mary's Hospital Heliport)
 
Road maps at: MapQuest Bing Google
 
Aerial photo
No photo
 
Sectional chart

 
Airport distance calculator
Flying to St Mary's Hospital Heliport? Find the distance to fly.

From to 7MD5

Sunrise and sunset
Times for 02-Jul-2022
 Local
(UTC-4)
 Zulu
(UTC)
Morning civil twilight05:1709:17
Sunrise05:4809:48
Sunset20:3300:33
Evening civil twilight21:0401:04

Current date and time
Zulu (UTC)  02-Jul-2022 13:27:28
Local (UTC-4)  02-Jul-2022 09:27:28
 
METAR
K2W6 
4nm E 
021250Z AUTO 21007KT 10SM CLR 26/22 A3000 RMK AO1
KNHK 
11nm E 
021252Z 22010G17KT 10SM FEW020 FEW120 SCT200 BKN280 27/22 A2998 RMK AO2 SLP152 T02670217 $
KNUI 
14nm SE 
021319Z AUTO 21009KT 10SM SCT015 28/22 A2998 RMK AO2 T02780217
TAF
KNHK 
11nm E 
0207/0307 22010KT 9999 FEW110 SCT280 QNH2993INS BECMG 0215/0217 13008KT 9999 FEW050 SCT110 BKN280 QNH2993INS BECMG 0219/0221 14009KT 9999 VCTS SCT050CB BKN110 BKN280 QNH2988INS TEMPO 0222/0304 VRB15G35KT 3200 TSRA FEW015 BKN040CB OVC090 AUTOMATED SENSOR METWATCH 0207 TIL 0211 T23/0210Z T33/0218Z FN00150
NOTAMs
Click for the latest NOTAMs
NOTAMs are issued by the DoD/FAA and will open in a separate window not controlled by AirNav.

 

 
 

Would you like to see your business listed on this page?

 If your business provides an interesting product or service to pilots, flight crews, aircraft, or users of the St Mary's Hospital Heliport, you should consider listing it here.  To start the listing process, click on the button below
 
Add a business
 

Other Pages about St Mary's Hospital Heliport

Update a link
 
Copyright © AirNav, LLC. All rights reserved. Privacy Policy  Contact